createdAt,value
2024-02-28T00:01:13.924Z,99756.35
2024-02-28T00:03:40.952Z,99757.46
2024-02-28T00:06:07.723Z,99761.45
2024-02-28T00:08:34.135Z,99763.44
2024-02-28T00:11:00.611Z,99764.20
2024-02-28T00:13:27.090Z,99763.83
2024-02-28T00:15:53.661Z,99767.08
2024-02-28T00:18:20.631Z,99770.69
2024-02-28T00:20:47.267Z,99766.76
2024-02-28T00:23:13.776Z,99771.05
2024-02-28T00:25:40.220Z,99773.95
2024-02-28T00:28:06.893Z,99773.92
2024-02-28T00:30:34.195Z,99772.67
2024-02-28T00:33:01.017Z,99779.31
2024-02-28T00:35:27.649Z,99783.23
2024-02-28T00:37:54.052Z,99783.25
2024-02-28T00:40:20.469Z,99788.81
2024-02-28T00:42:46.974Z,99788.63
2024-02-28T00:45:13.633Z,99794.36
2024-02-28T00:47:41.547Z,99790.25
2024-02-28T00:50:09.077Z,99790.43
2024-02-28T00:52:35.525Z,99791.66
2024-02-28T00:55:02.108Z,99790.25
2024-02-28T00:57:28.833Z,99794.17
2024-02-28T00:59:55.870Z,99796.15
2024-02-28T01:02:23.037Z,99797.23
2024-02-28T01:04:49.647Z,99797.75
2024-02-28T01:07:16.734Z,99799.02
2024-02-28T01:09:43.201Z,99802.23
2024-02-28T01:12:09.722Z,99802.95
2024-02-28T01:14:36.128Z,99802.03
2024-02-28T01:17:02.585Z,99802.39
2024-02-28T01:19:29.042Z,99803.09
2024-02-28T01:21:55.503Z,99806.15
2024-02-28T01:24:21.976Z,99803.45
2024-02-28T01:26:48.421Z,99807.56
2024-02-28T01:29:14.932Z,99803.42
2024-02-28T01:31:41.368Z,99803.42
2024-02-28T01:34:07.968Z,99800.54
2024-02-28T01:36:34.455Z,99797.69
2024-02-28T01:39:00.866Z,99804.14
2024-02-28T01:41:27.268Z,99804.65
2024-02-28T01:43:54.919Z,99799.09
2024-02-28T01:46:24.971Z,99794.79
2024-02-28T01:48:51.763Z,99796.05
2024-02-28T01:51:18.881Z,99790.84
2024-02-28T01:53:46.722Z,99792.45
2024-02-28T01:56:16.030Z,99786.90
2024-02-28T01:58:46.304Z,99781.70
2024-02-28T02:01:15.028Z,99783.15
2024-02-28T02:03:41.731Z,99784.42
2024-02-28T02:06:08.229Z,99788.73
2024-02-28T02:08:35.421Z,99790.20
2024-02-28T02:11:01.940Z,99794.68
2024-02-28T02:13:28.525Z,99799.16
2024-02-28T02:15:55.027Z,99802.94
2024-02-28T02:18:21.657Z,99807.77
2024-02-28T02:20:51.805Z,99812.45
2024-02-28T02:23:18.288Z,99812.09
2024-02-28T02:25:49.349Z,99816.56
2024-02-28T02:28:16.732Z,99823.73
2024-02-28T02:30:43.846Z,99824.45
2024-02-28T02:33:10.445Z,99832.34
2024-02-28T02:35:37.147Z,99842.18
2024-02-28T02:38:03.769Z,99845.23
2024-02-28T02:40:30.306Z,99852.40
2024-02-28T02:42:56.998Z,99854.02
2024-02-28T02:45:23.649Z,99858.85
2024-02-28T02:47:50.471Z,99864.21
2024-02-28T02:50:17.335Z,99863.51
2024-02-28T02:52:44.060Z,99870.48
2024-02-28T02:55:10.680Z,99874.27
2024-02-28T02:57:37.252Z,99884.65
2024-02-28T03:00:04.822Z,99886.98
2024-02-28T03:02:32.103Z,99890.20
2024-02-28T03:04:58.505Z,99897.19
2024-02-28T03:07:24.921Z,99894.70
2024-02-28T03:09:51.382Z,99898.80
2024-02-28T03:12:17.913Z,99897.55
2024-02-28T03:14:44.333Z,99900.60
2024-02-28T03:17:10.721Z,99902.39
2024-02-28T03:19:37.461Z,99902.58
2024-02-28T03:22:04.457Z,99903.10
2024-02-28T03:24:31.044Z,99908.48
2024-02-28T03:26:57.500Z,99911.18
2024-02-28T03:29:24.183Z,99910.09
2024-02-28T03:31:50.992Z,99911.70
2024-02-28T03:34:17.408Z,99918.30
2024-02-28T03:36:44.191Z,99917.22
2024-02-28T03:39:11.074Z,99919.55
2024-02-28T03:41:37.472Z,99923.14
2024-02-28T03:44:03.970Z,99925.63
2024-02-28T03:46:30.986Z,99926.34
2024-02-28T03:48:57.699Z,99927.95
2024-02-28T03:51:24.503Z,99934.04
2024-02-28T03:53:51.139Z,99935.29
2024-02-28T03:56:27.220Z,99938.35
2024-02-28T03:58:54.481Z,99942.45
2024-02-28T04:01:21.016Z,99945.50
2024-02-28T04:03:47.658Z,99947.31
2024-02-28T04:06:14.534Z,99950.52
2024-02-28T04:08:43.841Z,99953.02
2024-02-28T04:11:11.230Z,99957.30
2024-02-28T04:13:37.887Z,99958.38
2024-02-28T04:16:04.737Z,99959.28
2024-02-28T04:18:31.554Z,99962.88
2024-02-28T04:20:58.141Z,99969.50
2024-02-28T04:23:24.625Z,99966.81
2024-02-28T04:25:51.131Z,99966.10
2024-02-28T04:28:17.577Z,99968.44
2024-02-28T04:30:44.951Z,99970.78
2024-02-28T04:33:11.455Z,99978.31
2024-02-28T04:35:37.880Z,99981.54
2024-02-28T04:38:04.507Z,99984.92
2024-02-28T04:40:30.929Z,99987.61
2024-02-28T04:42:57.421Z,99990.82
2024-02-28T04:45:23.886Z,99990.47
2024-02-28T04:47:53.010Z,99996.18
2024-02-28T04:50:19.653Z,100002.29
2024-02-28T04:52:46.056Z,100002.61
2024-02-28T04:55:13.500Z,100006.22
2024-02-28T04:57:40.051Z,100008.55
2024-02-28T05:00:09.046Z,100010.34
2024-02-28T05:02:35.472Z,100009.96
2024-02-28T05:05:01.981Z,100015.36
2024-02-28T05:07:28.413Z,100013.20
2024-02-28T05:09:54.911Z,100010.33
2024-02-28T05:12:21.480Z,100013.92
2024-02-28T05:14:47.902Z,100018.70
2024-02-28T05:17:14.343Z,100020.49
2024-02-28T05:19:40.922Z,100019.23
2024-02-28T05:22:07.780Z,100022.82
2024-02-28T05:24:34.393Z,100020.50
2024-02-28T05:27:00.872Z,100022.69
2024-02-28T05:29:27.439Z,100026.64
2024-02-28T05:31:54.133Z,100027.34
2024-02-28T05:34:21.120Z,100027.02
2024-02-28T05:36:47.764Z,100029.98
2024-02-28T05:39:14.371Z,100028.77
2024-02-28T05:41:40.993Z,100030.38
2024-02-28T05:44:07.582Z,100031.86
2024-02-28T05:46:34.313Z,100036.50
2024-02-28T05:49:00.813Z,100040.04
2024-02-28T05:51:27.402Z,100038.62
2024-02-28T05:53:53.886Z,100032.34
2024-02-28T05:56:21.134Z,100028.20
2024-02-28T05:58:48.758Z,100026.77
2024-02-28T06:01:19.899Z,100023.17
2024-02-28T06:03:48.495Z,100021.41
2024-02-28T06:06:15.255Z,100024.43
2024-02-28T06:08:42.457Z,100023.38
2024-02-28T06:11:09.542Z,100026.59
2024-02-28T06:13:36.906Z,100031.26
2024-02-28T06:16:04.546Z,100036.09
2024-02-28T06:18:34.396Z,100041.98
2024-02-28T06:21:02.072Z,100046.63
2024-02-28T06:23:30.009Z,100046.48
2024-02-28T06:25:58.073Z,100050.62
2024-02-28T06:28:25.524Z,100054.20
2024-02-28T06:30:52.125Z,100052.80
2024-02-28T06:33:19.950Z,100057.28
2024-02-28T06:35:46.718Z,100064.11
2024-02-28T06:38:13.210Z,100068.77
2024-02-28T06:40:40.095Z,100071.13
2024-02-28T06:43:06.785Z,100077.05
2024-02-28T06:45:33.430Z,100079.20
2024-02-28T06:48:00.424Z,100083.35
2024-02-28T06:50:26.891Z,100081.42
2024-02-28T06:52:54.840Z,100086.43
2024-02-28T06:55:22.219Z,100086.61
2024-02-28T06:57:49.101Z,100091.30
2024-02-28T07:00:17.108Z,100091.83
2024-02-28T07:02:43.857Z,100097.06
2024-02-28T07:05:10.327Z,100102.95
2024-02-28T07:07:36.831Z,100109.37
2024-02-28T07:10:05.668Z,100114.77
2024-02-28T07:12:32.701Z,100114.95
2024-02-28T07:14:59.415Z,100113.86
2024-02-28T07:17:25.845Z,100114.23
2024-02-28T07:19:52.245Z,100122.10
2024-02-28T07:22:18.933Z,100124.11
2024-02-28T07:24:45.466Z,100130.98
2024-02-28T07:27:12.021Z,100137.29
2024-02-28T07:29:38.860Z,100137.46
2024-02-28T07:32:06.290Z,100135.11
2024-02-28T07:34:32.767Z,100132.95
2024-02-28T07:36:59.246Z,100136.66
2024-02-28T07:39:26.045Z,100141.23
2024-02-28T07:41:55.875Z,100146.63
2024-02-28T07:44:23.105Z,100150.73
2024-02-28T07:46:51.692Z,100156.23
2024-02-28T07:49:18.489Z,100154.81
2024-02-28T07:51:45.052Z,100155.38
2024-02-28T07:54:11.620Z,100163.84
2024-02-28T07:56:38.027Z,100173.70
2024-02-28T07:59:04.588Z,100173.52
2024-02-28T08:01:32.056Z,100170.52
2024-02-28T08:03:58.857Z,100177.15
2024-02-28T08:06:25.676Z,100174.84
2024-02-28T08:08:52.296Z,100174.67
2024-02-28T08:11:20.283Z,100171.46
2024-02-28T08:13:47.036Z,100175.97
2024-02-28T08:16:13.773Z,100179.92
2024-02-28T08:18:40.724Z,100182.62
2024-02-28T08:21:07.200Z,100184.95
2024-02-28T08:23:33.635Z,100187.47
2024-02-28T08:26:00.112Z,100190.73
2024-02-28T08:28:26.601Z,100186.95
2024-02-28T08:30:53.336Z,100192.88
2024-02-28T08:33:21.840Z,100189.31
2024-02-28T08:35:51.347Z,100186.11
2024-02-28T08:38:18.116Z,100186.31
2024-02-28T08:40:44.545Z,100189.90
2024-02-28T08:43:10.975Z,100185.78
2024-02-28T08:45:38.860Z,100189.54
2024-02-28T08:48:06.961Z,100192.04
2024-02-28T08:50:33.398Z,100196.19
2024-02-28T08:52:59.820Z,100195.98
2024-02-28T08:55:26.286Z,100195.27
2024-02-28T08:57:52.818Z,100197.61
2024-02-28T09:00:19.546Z,100197.77
2024-02-28T09:02:46.031Z,100197.93
2024-02-28T09:05:12.567Z,100198.11
2024-02-28T09:07:39.069Z,100198.82
2024-02-28T09:10:09.157Z,100191.98
2024-02-28T09:12:35.662Z,100193.80
2024-02-28T09:15:02.186Z,100191.80
2024-02-28T09:17:28.689Z,100190.52
2024-02-28T09:19:55.770Z,100195.95
2024-02-28T09:22:22.873Z,100192.71
2024-02-28T09:24:50.129Z,100195.56
2024-02-28T09:27:16.875Z,100194.84
2024-02-28T09:29:43.338Z,100191.95
2024-02-28T09:32:10.298Z,100187.98
2024-02-28T09:34:38.366Z,100189.59
2024-02-28T09:37:05.440Z,100187.80
2024-02-28T09:39:32.041Z,100193.53
2024-02-28T09:41:59.226Z,100200.31
2024-02-28T09:44:26.861Z,100206.05
2024-02-28T09:46:54.069Z,100215.04
2024-02-28T09:49:21.189Z,100218.23
2024-02-28T09:51:53.782Z,100216.25
2024-02-28T09:54:20.533Z,100212.77
2024-02-28T09:56:49.520Z,100210.61
2024-02-28T09:59:18.363Z,100205.52
2024-02-28T10:01:51.505Z,100209.77
2024-02-28T10:04:18.386Z,100209.91
2024-02-28T10:06:44.989Z,100204.88
2024-02-28T10:09:12.064Z,100209.52
2024-02-28T10:11:39.086Z,100214.98
2024-02-28T10:14:05.572Z,100222.59
2024-02-28T10:16:32.032Z,100225.63
2024-02-28T10:18:58.666Z,100225.41
2024-02-28T10:21:27.358Z,100229.80
2024-02-28T10:23:54.029Z,100232.70
2024-02-28T10:26:20.433Z,100233.47
2024-02-28T10:28:46.930Z,100236.30
2024-02-28T10:31:13.665Z,100240.10
2024-02-28T10:33:43.185Z,100246.80
2024-02-28T10:36:10.460Z,100245.66
2024-02-28T10:38:39.996Z,100250.37
2024-02-28T10:41:09.856Z,100253.09
2024-02-28T10:43:40.862Z,100253.91
2024-02-28T10:46:26.170Z,100253.64
2024-02-28T10:48:57.085Z,100263.43
2024-02-28T10:51:27.375Z,100266.44
2024-02-28T10:54:07.736Z,100270.18
2024-02-28T10:56:34.208Z,100273.64
2024-02-28T10:59:01.634Z,100270.66
2024-02-28T11:01:29.025Z,100271.09
2024-02-28T11:03:56.469Z,100272.54
2024-02-28T11:06:24.055Z,100275.48
2024-02-28T11:08:55.816Z,100275.48
2024-02-28T11:11:22.561Z,100278.72
2024-02-28T11:14:01.271Z,100279.42
2024-02-28T11:16:33.133Z,100271.09
2024-02-28T11:19:01.276Z,100259.56
2024-02-28T11:21:28.851Z,100249.71
2024-02-28T11:24:00.694Z,100245.30
2024-02-28T11:26:29.019Z,100238.10
2024-02-28T11:28:56.359Z,100222.18
2024-02-28T11:31:23.187Z,100219.51
2024-02-28T11:33:49.852Z,100222.45
2024-02-28T11:36:16.359Z,100232.74
2024-02-28T11:38:43.018Z,100230.91
2024-02-28T11:41:09.488Z,100235.23
2024-02-28T11:43:46.997Z,100231.64
2024-02-28T11:46:19.477Z,100231.33
2024-02-28T11:48:46.753Z,100230.66
2024-02-28T11:51:13.307Z,100232.67
2024-02-28T11:53:39.911Z,100233.61
2024-02-28T11:56:06.934Z,100240.52
2024-02-28T11:58:33.391Z,100247.60
2024-02-28T12:01:00.151Z,100250.62
2024-02-28T12:03:28.464Z,100249.16
2024-02-28T12:05:56.791Z,100246.79
2024-02-28T12:08:24.968Z,100251.70
2024-02-28T12:10:52.991Z,100248.12
2024-02-28T12:13:20.111Z,100249.50
2024-02-28T12:15:48.447Z,100249.08
2024-02-28T12:18:18.140Z,100244.95
2024-02-28T12:20:46.531Z,100242.11
2024-02-28T12:23:13.481Z,100238.92
2024-02-28T12:25:40.766Z,100238.92
2024-02-28T12:28:08.164Z,100233.84
2024-02-28T12:30:44.942Z,100227.13
2024-02-28T12:33:15.178Z,100222.56
2024-02-28T12:35:43.406Z,100220.45
2024-02-28T12:38:10.737Z,100218.89
2024-02-28T12:40:37.159Z,100208.31
2024-02-28T12:43:04.433Z,100201.70
2024-02-28T12:45:31.808Z,100196.77
2024-02-28T12:47:58.573Z,100195.02
2024-02-28T12:50:25.571Z,100189.96
2024-02-28T12:52:54.859Z,100189.02
2024-02-28T12:55:24.252Z,100186.83
2024-02-28T12:57:51.692Z,100183.48
2024-02-28T13:00:18.973Z,100176.10
2024-02-28T13:02:46.117Z,100167.90
2024-02-28T13:05:14.332Z,100165.06
2024-02-28T13:07:41.152Z,100157.80
2024-02-28T13:10:08.429Z,100158.96
2024-02-28T13:12:35.290Z,100154.92
2024-02-28T13:15:01.955Z,100152.59
2024-02-28T13:17:28.457Z,100151.21
2024-02-28T13:19:54.933Z,100157.27
2024-02-28T13:22:21.378Z,100151.52
2024-02-28T13:24:47.883Z,100147.96
2024-02-28T13:27:14.691Z,100149.08
2024-02-28T13:29:41.154Z,100152.22
2024-02-28T13:32:08.523Z,100156.77
2024-02-28T13:34:34.956Z,100149.11
2024-02-28T13:37:01.436Z,100153.69
2024-02-28T13:39:28.533Z,100153.92
2024-02-28T13:41:55.072Z,100150.12
2024-02-28T13:44:21.577Z,100150.54
2024-02-28T13:46:49.061Z,100148.56
2024-02-28T13:49:17.513Z,100149.16
2024-02-28T13:51:44.244Z,100153.79
2024-02-28T13:54:10.711Z,100150.93
2024-02-28T13:56:37.185Z,100147.17
2024-02-28T13:59:03.628Z,100137.55
2024-02-28T14:01:30.438Z,100137.52
2024-02-28T14:03:57.457Z,100140.30
2024-02-28T14:06:24.067Z,100140.35
2024-02-28T14:08:52.750Z,100146.02
2024-02-28T14:11:19.764Z,100140.71
2024-02-28T14:13:46.548Z,100141.52
2024-02-28T14:16:13.690Z,100148.93
2024-02-28T14:18:40.287Z,100141.66
2024-02-28T14:21:08.306Z,100137.17
2024-02-28T14:23:35.182Z,100137.70
2024-02-28T14:26:01.603Z,100146.87
2024-02-28T14:28:28.181Z,100149.20
2024-02-28T14:30:55.046Z,100147.85
2024-02-28T14:33:22.638Z,100143.73
2024-02-28T14:35:49.322Z,100140.89
2024-02-28T14:38:16.495Z,100142.48
2024-02-28T14:40:42.858Z,100154.37
2024-02-28T14:43:10.153Z,100151.84
2024-02-28T14:45:39.916Z,100159.25
2024-02-28T14:48:08.565Z,100160.11
2024-02-28T14:50:35.281Z,100170.05
2024-02-28T14:53:02.014Z,100167.58
2024-02-28T14:55:28.420Z,100166.50
2024-02-28T14:57:54.898Z,100162.37
2024-02-28T15:00:22.057Z,100156.84
2024-02-28T15:02:48.792Z,100158.41
2024-02-28T15:05:15.785Z,100161.53
2024-02-28T15:07:42.410Z,100161.75
2024-02-28T15:10:09.792Z,100165.71
2024-02-28T15:12:36.890Z,100161.60
2024-02-28T15:15:05.691Z,100161.52
2024-02-28T15:17:33.007Z,100164.54
2024-02-28T15:20:00.821Z,100159.11
2024-02-28T15:22:27.320Z,100158.96
2024-02-28T15:24:53.876Z,100158.05
2024-02-28T15:27:20.435Z,100158.84
2024-02-28T15:29:46.915Z,100156.90
2024-02-28T15:32:13.572Z,100153.19
2024-02-28T15:34:40.508Z,100152.63
2024-02-28T15:37:07.532Z,100151.34
2024-02-28T15:39:34.170Z,100155.77
2024-02-28T15:42:03.615Z,100153.97
2024-02-28T15:44:30.044Z,100160.02
2024-02-28T15:46:58.182Z,100158.23
2024-02-28T15:49:33.089Z,100155.37
2024-02-28T15:52:08.766Z,100157.23
2024-02-28T15:54:38.329Z,100162.77
2024-02-28T15:57:05.081Z,100167.29
2024-02-28T15:59:31.781Z,100161.45
2024-02-28T16:02:01.527Z,100159.90
2024-02-28T16:04:28.010Z,100158.98
2024-02-28T16:06:54.452Z,100163.77
2024-02-28T16:09:20.893Z,100169.81
2024-02-28T16:11:47.468Z,100174.95
2024-02-28T16:14:14.796Z,100173.35
2024-02-28T16:16:41.470Z,100170.87
2024-02-28T16:19:15.540Z,100172.67
2024-02-28T16:21:51.100Z,100173.48
2024-02-28T16:24:17.813Z,100172.77
2024-02-28T16:26:44.656Z,100176.42
2024-02-28T16:29:11.151Z,100176.30
2024-02-28T16:31:37.623Z,100180.83
2024-02-28T16:34:04.199Z,100179.22
2024-02-28T16:36:31.596Z,100181.58
2024-02-28T16:38:58.336Z,100185.65
2024-02-28T16:41:24.875Z,100188.23
2024-02-28T16:43:52.003Z,100187.50
2024-02-28T16:46:20.954Z,100191.63
2024-02-28T16:48:47.675Z,100193.29
2024-02-28T16:51:14.224Z,100196.88
2024-02-28T16:53:40.707Z,100198.69
2024-02-28T16:56:07.182Z,100200.67
2024-02-28T16:58:36.254Z,100200.85
2024-02-28T17:01:03.316Z,100206.06
2024-02-28T17:03:30.011Z,100208.23
2024-02-28T17:05:56.482Z,100211.27
2024-02-28T17:08:22.911Z,100209.11
2024-02-28T17:10:49.573Z,100220.60
2024-02-28T17:13:16.011Z,100219.64
2024-02-28T17:15:43.362Z,100224.10
2024-02-28T17:18:10.169Z,100226.97
2024-02-28T17:20:36.665Z,100229.11
2024-02-28T17:23:03.998Z,100231.95
2024-02-28T17:25:30.427Z,100233.55
2024-02-28T17:27:57.051Z,100235.33
2024-02-28T17:30:23.584Z,100234.39
2024-02-28T17:32:51.307Z,100237.23
2024-02-28T17:35:19.399Z,100237.04
2024-02-28T17:37:46.127Z,100240.24
2024-02-28T17:40:16.732Z,100236.80
2024-02-28T17:42:43.345Z,100241.27
2024-02-28T17:45:10.454Z,100250.52
2024-02-28T17:47:39.028Z,100246.70
2024-02-28T17:50:07.613Z,100248.56
2024-02-28T17:52:37.672Z,100247.31
2024-02-28T17:55:07.678Z,100249.07
2024-02-28T17:57:36.506Z,100253.90
2024-02-28T18:00:07.921Z,100247.92
2024-02-28T18:02:34.698Z,100249.31
2024-02-28T18:05:01.164Z,100247.85
2024-02-28T18:07:27.676Z,100249.23
2024-02-28T18:09:54.156Z,100251.86
2024-02-28T18:12:20.573Z,100255.99
2024-02-28T18:14:47.010Z,100256.11
2024-02-28T18:17:14.239Z,100257.58
2024-02-28T18:19:40.781Z,100253.05
2024-02-28T18:22:10.055Z,100248.02
2024-02-28T18:24:39.908Z,100248.36
2024-02-28T18:27:10.111Z,100249.73
2024-02-28T18:29:37.175Z,100251.73
2024-02-28T18:32:04.503Z,100247.77
2024-02-28T18:34:31.225Z,100249.35
2024-02-28T18:36:58.108Z,100246.08
2024-02-28T18:39:25.829Z,100251.36
2024-02-28T18:41:53.886Z,100253.13
2024-02-28T18:44:20.731Z,100254.39
2024-02-28T18:46:47.301Z,100255.23
2024-02-28T18:49:13.840Z,100251.65
2024-02-28T18:51:41.442Z,100253.91
2024-02-28T18:54:08.194Z,100254.23
2024-02-28T18:56:35.020Z,100253.34
2024-02-28T18:59:01.827Z,100249.64
2024-02-28T19:01:28.464Z,100244.20
2024-02-28T19:03:56.935Z,100241.42
2024-02-28T19:06:25.631Z,100244.11
2024-02-28T19:08:56.768Z,100245.77
2024-02-28T19:11:23.701Z,100246.86
2024-02-28T19:13:51.536Z,100246.70
2024-02-28T19:16:19.616Z,100244.16
2024-02-28T19:18:46.240Z,100241.32
2024-02-28T19:21:12.912Z,100238.24
2024-02-28T19:23:41.782Z,100236.12
2024-02-28T19:26:08.580Z,100242.08
2024-02-28T19:28:35.119Z,100242.50
2024-02-28T19:31:02.860Z,100238.62
2024-02-28T19:33:29.519Z,100243.83
2024-02-28T19:35:56.058Z,100244.94
2024-02-28T19:38:22.848Z,100244.40
2024-02-28T19:40:49.295Z,100243.70
2024-02-28T19:43:15.981Z,100245.11
2024-02-28T19:45:42.711Z,100247.28
2024-02-28T19:48:09.487Z,100244.63
2024-02-28T19:50:36.285Z,100244.39
2024-02-28T19:53:04.170Z,100240.20
2024-02-28T19:55:30.725Z,100239.04
2024-02-28T19:57:57.315Z,100236.11
2024-02-28T20:00:23.847Z,100239.02
2024-02-28T20:02:50.559Z,100238.38
2024-02-28T20:05:19.480Z,100232.24
2024-02-28T20:07:47.869Z,100228.97
2024-02-28T20:10:16.285Z,100231.45
2024-02-28T20:12:43.037Z,100224.83
2024-02-28T20:15:09.907Z,100219.80
2024-02-28T20:17:36.466Z,100222.08
2024-02-28T20:20:04.492Z,100219.35
2024-02-28T20:22:30.987Z,100219.15
2024-02-28T20:24:57.417Z,100219.96
2024-02-28T20:27:23.942Z,100220.73
2024-02-28T20:29:50.459Z,100222.94
2024-02-28T20:32:16.886Z,100221.11
2024-02-28T20:34:43.385Z,100220.33
2024-02-28T20:37:09.902Z,100225.11
2024-02-28T20:39:36.574Z,100223.77
2024-02-28T20:42:05.835Z,100225.21
2024-02-28T20:44:32.386Z,100229.44
2024-02-28T20:46:58.948Z,100223.30
2024-02-28T20:49:25.592Z,100230.36
2024-02-28T20:51:52.108Z,100235.64
2024-02-28T20:54:18.732Z,100232.71
2024-02-28T20:56:45.216Z,100226.20
2024-02-28T20:59:11.717Z,100224.54
2024-02-28T21:01:38.631Z,100228.55
2024-02-28T21:04:06.874Z,100231.84
2024-02-28T21:06:33.863Z,100233.80
2024-02-28T21:09:01.473Z,100234.24
2024-02-28T21:11:28.687Z,100238.23
2024-02-28T21:13:56.493Z,100242.07
2024-02-28T21:16:23.835Z,100241.67
2024-02-28T21:18:55.464Z,100242.91
2024-02-28T21:21:24.378Z,100245.00
2024-02-28T21:23:50.874Z,100241.75
2024-02-28T21:26:17.433Z,100241.29
2024-02-28T21:28:44.068Z,100237.98
2024-02-28T21:31:12.524Z,100231.98
2024-02-28T21:33:39.381Z,100227.38
2024-02-28T21:36:06.346Z,100222.86
2024-02-28T21:38:32.812Z,100223.77
2024-02-28T21:40:59.294Z,100220.23
2024-02-28T21:43:25.727Z,100217.05
2024-02-28T21:45:52.294Z,100212.39
2024-02-28T21:48:19.057Z,100211.08
2024-02-28T21:50:45.708Z,100204.58
2024-02-28T21:53:12.334Z,100206.98
2024-02-28T21:55:39.381Z,100207.11
2024-02-28T21:58:05.997Z,100207.40
2024-02-28T22:00:32.763Z,100207.50
2024-02-28T22:02:59.323Z,100204.26
2024-02-28T22:05:25.845Z,100206.34
2024-02-28T22:07:52.605Z,100201.86
2024-02-28T22:10:19.149Z,100205.79
2024-02-28T22:12:45.831Z,100205.31
2024-02-28T22:15:12.511Z,100200.63
2024-02-28T22:17:39.149Z,100195.48
2024-02-28T22:20:07.106Z,100195.61
2024-02-28T22:22:33.926Z,100192.52
2024-02-28T22:25:00.458Z,100181.27
2024-02-28T22:27:27.359Z,100183.89
2024-02-28T22:29:55.277Z,100181.02
2024-02-28T22:32:22.743Z,100180.89
2024-02-28T22:34:49.185Z,100177.46
2024-02-28T22:37:15.815Z,100176.89
2024-02-28T22:39:42.481Z,100175.05
2024-02-28T22:42:08.948Z,100177.52
2024-02-28T22:44:35.426Z,100172.61
2024-02-28T22:47:01.930Z,100168.09
2024-02-28T22:49:29.248Z,100161.88
2024-02-28T22:51:55.757Z,100162.92
2024-02-28T22:54:24.321Z,100162.04
2024-02-28T22:56:51.028Z,100162.60
2024-02-28T22:59:18.455Z,100160.85
2024-02-28T23:01:45.546Z,100158.94
2024-02-28T23:04:12.696Z,100154.84
2024-02-28T23:06:40.739Z,100150.59
2024-02-28T23:09:07.679Z,100150.05
2024-02-28T23:11:34.761Z,100148.97
2024-02-28T23:14:02.174Z,100146.29
2024-02-28T23:16:29.937Z,100146.80
2024-02-28T23:18:57.017Z,100144.98
2024-02-28T23:21:23.960Z,100145.29
2024-02-28T23:23:50.524Z,100145.65
2024-02-28T23:26:17.024Z,100141.77
2024-02-28T23:28:44.138Z,100143.20
2024-02-28T23:31:10.742Z,100140.44
2024-02-28T23:33:37.564Z,100139.55
2024-02-28T23:36:04.876Z,100133.35
2024-02-28T23:38:31.455Z,100133.35
2024-02-28T23:40:57.994Z,100127.55
2024-02-28T23:43:25.061Z,100131.41
2024-02-28T23:45:51.516Z,100131.10
2024-02-28T23:48:17.969Z,100129.71
2024-02-28T23:50:53.757Z,100127.06
2024-02-28T23:53:20.811Z,100124.84
2024-02-28T23:55:47.381Z,100120.46
2024-02-28T23:58:14.350Z,100120.00
